Time;durP1;ratioP1;P1;durP2;ratioP2;P2;SDS_P1;SDS_P2;PMS_P1;PMS_P2;Temp;Humidity;BMP_temperature;BMP_pressure;BME280_temperature;BME280_humidity;BME280_pressure;Samples;Min_cycle;Max_cycle;Signal;HPM_P1;HPM_P2
2023/03/26 00:01:20;;;;;;;4.05;3.80;;;;;;;;;;5119239;27;20067;-95
2023/03/26 00:03:52;;;;;;;3.75;3.55;;;;;;;;;;5117966;27;20707;-96
2023/03/26 00:06:20;;;;;;;4.25;4.00;;;;;;;;;;5117693;28;20043;-95
2023/03/26 00:08:47;;;;;;;4.88;4.57;;;;;;;;;;5117519;28;20094;-95
2023/03/26 00:11:14;;;;;;;5.30;4.88;;;;;;;;;;5118733;27;20052;-95
2023/03/26 00:13:42;;;;;;;4.25;3.95;;;;;;;;;;5117871;27;20039;-95
2023/03/26 00:16:12;;;;;;;3.80;3.60;;;;;;;;;;5118561;27;20051;-94
2023/03/26 00:18:42;;;;;;;3.80;3.60;;;;;;;;;;5118062;28;20499;-96
2023/03/26 00:21:10;;;;;;;4.72;4.47;;;;;;;;;;5118550;27;20130;-95
2023/03/26 00:23:37;;;;;;;4.72;4.43;;;;;;;;;;5119215;28;20440;-93
2023/03/26 00:26:09;;;;;;;2.95;2.80;;;;;;;;;;5119691;27;20047;-94
2023/03/26 00:28:36;;;;;;;4.10;3.75;;;;;;;;;;5118063;28;20051;-93
2023/03/26 00:31:03;;;;;;;3.80;3.50;;;;;;;;;;5118685;28;20464;-95
2023/03/26 00:33:31;;;;;;;4.38;4.18;;;;;;;;;;5119906;28;20046;-94
2023/03/26 00:35:59;;;;;;;4.57;4.18;;;;;;;;;;5117630;28;20456;-95
2023/03/26 00:49:02;;;;;;;5.07;4.78;;;;;;;;;;5848048;22;20139;-95
2023/03/26 00:51:29;;;;;;;6.25;5.85;;;;;;;;;;5017791;28;20049;-95
2023/03/26 00:53:56;;;;;;;4.82;4.63;;;;;;;;;;5016089;28;20053;-94
2023/03/26 00:56:23;;;;;;;3.53;3.22;;;;;;;;;;5017268;28;20119;-94
2023/03/26 00:58:50;;;;;;;3.78;3.58;;;;;;;;;;5016113;28;20383;-93
2023/03/26 01:01:19;;;;;;;2.97;2.85;;;;;;;;;;5016629;28;20545;-94
2023/03/26 01:03:46;;;;;;;5.18;4.90;;;;;;;;;;5016917;28;20119;-94
2023/03/26 01:06:26;;;;;;;4.78;4.47;;;;;;;;;;5017209;28;20053;-94
2023/03/26 01:08:58;;;;;;;5.72;5.18;;;;;;;;;;5018597;28;20054;-94
2023/03/26 01:11:26;;;;;;;4.57;4.38;;;;;;;;;;5017081;28;20461;-94
2023/03/26 01:13:54;;;;;;;4.38;4.07;;;;;;;;;;5015816;28;20045;-94
2023/03/26 01:16:24;;;;;;;5.20;5.00;;;;;;;;;;5016448;28;20141;-94
2023/03/26 01:18:51;;;;;;;2.22;2.13;;;;;;;;;;5016098;28;20551;-95
2023/03/26 01:21:21;;;;;;;4.75;4.55;;;;;;;;;;5016757;28;20054;-95
2023/03/26 01:23:50;;;;;;;4.18;3.95;;;;;;;;;;5016623;28;20069;-96
2023/03/26 01:26:26;;;;;;;4.25;4.05;;;;;;;;;;5016756;28;20073;-96
2023/03/26 01:28:55;;;;;;;3.90;3.70;;;;;;;;;;5016288;28;20049;-95
2023/03/26 01:31:24;;;;;;;3.90;3.67;;;;;;;;;;5023493;28;20038;-94
2023/03/26 01:33:55;;;;;;;3.95;3.75;;;;;;;;;;5018881;28;20060;-95
2023/03/26 01:36:25;;;;;;;6.05;5.68;;;;;;;;;;5020897;28;20049;-94
2023/03/26 01:38:58;;;;;;;4.40;4.20;;;;;;;;;;5016944;28;20056;-95
2023/03/26 01:41:29;;;;;;;2.88;2.78;;;;;;;;;;5015396;28;20045;-94
2023/03/26 01:43:57;;;;;;;3.70;3.40;;;;;;;;;;5015362;28;20053;-95
2023/03/26 01:46:25;;;;;;;3.95;3.75;;;;;;;;;;5015434;28;20084;-95
2023/03/26 01:48:52;;;;;;;5.40;5.00;;;;;;;;;;5017553;28;20140;-95
2023/03/26 01:51:26;;;;;;;3.67;3.47;;;;;;;;;;5017370;28;20108;-95
2023/03/26 01:53:53;;;;;;;4.53;4.20;;;;;;;;;;5017467;28;20050;-95
2023/03/26 01:56:23;;;;;;;5.20;4.95;;;;;;;;;;5019183;28;20057;-95
2023/03/26 01:59:00;;;;;;;4.03;3.72;;;;;;;;;;5016742;28;20054;-96
2023/03/26 02:01:29;;;;;;;3.72;3.53;;;;;;;;;;5018263;28;20494;-94
2023/03/26 02:03:59;;;;;;;4.93;4.63;;;;;;;;;;5016522;28;20053;-95
2023/03/26 02:06:29;;;;;;;4.70;4.47;;;;;;;;;;5016930;28;20061;-95
2023/03/26 02:08:58;;;;;;;3.40;3.22;;;;;;;;;;5021070;28;20060;-94
2023/03/26 02:11:25;;;;;;;5.60;5.20;;;;;;;;;;5029374;28;20038;-93
2023/03/26 02:13:56;;;;;;;4.32;4.03;;;;;;;;;;5036191;28;20042;-94
2023/03/26 02:16:23;;;;;;;6.30;5.85;;;;;;;;;;5033691;28;20061;-94
2023/03/26 02:18:54;;;;;;;4.50;4.20;;;;;;;;;;5032139;28;20056;-96
2023/03/26 02:21:22;;;;;;;6.30;5.80;;;;;;;;;;5031020;28;20429;-94
2023/03/26 02:23:49;;;;;;;3.22;3.10;;;;;;;;;;5032881;28;20045;-94
2023/03/26 02:26:17;;;;;;;3.45;3.25;;;;;;;;;;5026103;28;20362;-95
2023/03/26 02:28:43;;;;;;;3.72;3.53;;;;;;;;;;5021984;28;20399;-95
2023/03/26 02:31:12;;;;;;;4.55;4.03;;;;;;;;;;5020668;28;20049;-94
2023/03/26 02:33:39;;;;;;;5.03;4.70;;;;;;;;;;5022372;28;20072;-94
2023/03/26 02:36:07;;;;;;;3.30;3.00;;;;;;;;;;5025901;28;20050;-93
2023/03/26 02:38:34;;;;;;;3.25;3.15;;;;;;;;;;5027919;28;20112;-93
2023/03/26 02:41:01;;;;;;;7.03;2.72;;;;;;;;;;5031378;28;20045;-93
2023/03/26 02:43:28;;;;;;;2.28;2.17;;;;;;;;;;5031972;28;20109;-93
2023/03/26 02:45:55;;;;;;;5.10;4.80;;;;;;;;;;5020985;28;20065;-94
2023/03/26 02:48:23;;;;;;;3.17;3.05;;;;;;;;;;5001702;28;20057;-95
2023/03/26 02:50:53;;;;;;;4.50;4.20;;;;;;;;;;4999557;28;20073;-94
2023/03/26 02:53:20;;;;;;;3.60;3.13;;;;;;;;;;4999869;28;20046;-94
2023/03/26 02:55:47;;;;;;;3.25;3.10;;;;;;;;;;4999586;28;20050;-94
2023/03/26 02:58:16;;;;;;;5.43;5.10;;;;;;;;;;4999365;28;20460;-94
2023/03/26 03:00:43;;;;;;;4.05;3.78;;;;;;;;;;5002313;28;20079;-93
2023/03/26 03:03:09;;;;;;;2.38;2.28;;;;;;;;;;5001110;28;20046;-93
2023/03/26 03:05:38;;;;;;;2.63;2.42;;;;;;;;;;5018303;28;20497;-93
2023/03/26 03:08:05;;;;;;;4.03;3.55;;;;;;;;;;5021867;28;20050;-93
2023/03/26 03:10:31;;;;;;;2.50;2.30;;;;;;;;;;5021880;28;20054;-95
2023/03/26 03:12:58;;;;;;;5.75;5.47;;;;;;;;;;5025148;28;20061;-93
2023/03/26 03:15:25;;;;;;;3.40;3.25;;;;;;;;;;5026247;28;20069;-93
2023/03/26 03:17:51;;;;;;;4.90;4.40;;;;;;;;;;5029291;28;20050;-93
2023/03/26 03:20:18;;;;;;;4.05;3.85;;;;;;;;;;5033573;28;20054;-93
2023/03/26 03:22:46;;;;;;;4.13;3.83;;;;;;;;;;5031233;28;20051;-92
2023/03/26 03:25:16;;;;;;;2.72;2.58;;;;;;;;;;5030442;28;20042;-93
2023/03/26 03:27:42;;;;;;;3.03;2.92;;;;;;;;;;5034009;28;20060;-92
2023/03/26 03:30:11;;;;;;;3.97;3.75;;;;;;;;;;5028549;28;20112;-94
2023/03/26 03:32:37;;;;;;;4.43;4.13;;;;;;;;;;5026950;28;20046;-93
2023/03/26 03:35:04;;;;;;;3.08;2.88;;;;;;;;;;5026047;28;20092;-93
2023/03/26 03:37:31;;;;;;;3.65;3.45;;;;;;;;;;5025179;28;20086;-92
2023/03/26 03:39:59;;;;;;;2.17;2.08;;;;;;;;;;5029781;28;20054;-93
2023/03/26 03:42:27;;;;;;;3.08;2.88;;;;;;;;;;5022717;28;20421;-93
2023/03/26 03:44:53;;;;;;;4.65;4.43;;;;;;;;;;5018856;28;20092;-94
2023/03/26 03:47:21;;;;;;;3.83;3.63;;;;;;;;;;5018509;28;20050;-95
2023/03/26 03:49:48;;;;;;;3.50;3.38;;;;;;;;;;5018545;28;20061;-96
2023/03/26 03:52:15;;;;;;;5.32;5.13;;;;;;;;;;5022648;28;20505;-95
2023/03/26 03:54:41;;;;;;;3.92;3.75;;;;;;;;;;5033457;28;20022;-95
2023/03/26 03:57:09;;;;;;;4.13;3.80;;;;;;;;;;5037354;28;20104;-94
2023/03/26 03:59:36;;;;;;;5.88;3.97;;;;;;;;;;5022722;28;20054;-95
2023/03/26 04:02:02;;;;;;;4.15;3.95;;;;;;;;;;5019956;28;20046;-95
2023/03/26 04:04:29;;;;;;;3.60;3.50;;;;;;;;;;5018044;28;20481;-96
2023/03/26 04:06:56;;;;;;;3.40;3.20;;;;;;;;;;5017674;28;20050;-95
2023/03/26 04:09:22;;;;;;;4.88;4.68;;;;;;;;;;5018111;28;20108;-96
2023/03/26 04:11:49;;;;;;;4.32;4.13;;;;;;;;;;5018107;28;20053;-96
2023/03/26 04:14:17;;;;;;;4.32;4.13;;;;;;;;;;5017666;28;20052;-95
2023/03/26 04:16:44;;;;;;;5.75;3.35;;;;;;;;;;5018475;28;20046;-96
2023/03/26 04:19:13;;;;;;;3.92;3.72;;;;;;;;;;5017570;28;20054;-96
2023/03/26 04:21:41;;;;;;;4.35;4.15;;;;;;;;;;5019413;28;20112;-95
2023/03/26 04:24:09;;;;;;;3.75;3.55;;;;;;;;;;5018353;28;20125;-96
2023/03/26 04:26:36;;;;;;;3.50;3.28;;;;;;;;;;5017253;28;20050;-96
2023/03/26 04:29:04;;;;;;;3.30;3.10;;;;;;;;;;5017749;28;20045;-96
2023/03/26 04:31:32;;;;;;;3.47;3.28;;;;;;;;;;5017675;28;20449;-96
2023/03/26 04:34:05;;;;;;;2.85;2.75;;;;;;;;;;5016156;28;20061;-96
2023/03/26 04:36:33;;;;;;;4.47;4.28;;;;;;;;;;5000018;28;20070;-95
2023/03/26 04:39:04;;;;;;;4.85;4.60;;;;;;;;;;5003580;28;20058;-96
2023/03/26 04:41:31;;;;;;;4.75;4.45;;;;;;;;;;4998759;28;20137;-96
2023/03/26 04:44:00;;;;;;;3.70;3.50;;;;;;;;;;4997876;28;20051;-96
2023/03/26 04:46:27;;;;;;;4.03;3.83;;;;;;;;;;4999130;28;20104;-96
2023/03/26 04:48:55;;;;;;;2.78;2.58;;;;;;;;;;5021670;28;20053;-95
2023/03/26 04:51:25;;;;;;;5.40;5.10;;;;;;;;;;5003050;28;20065;-95
2023/03/26 04:53:53;;;;;;;3.20;3.00;;;;;;;;;;5002945;28;20097;-95
2023/03/26 04:56:26;;;;;;;4.05;3.85;;;;;;;;;;5007057;28;20560;-95
2023/03/26 04:59:00;;;;;;;4.97;4.72;;;;;;;;;;4999518;28;20050;-96
2023/03/26 05:01:27;;;;;;;3.78;3.58;;;;;;;;;;4997686;28;20132;-96
2023/03/26 05:03:55;;;;;;;4.40;4.15;;;;;;;;;;4998018;28;20141;-96
2023/03/26 05:06:23;;;;;;;4.78;4.32;;;;;;;;;;5014950;28;20104;-95
2023/03/26 05:08:50;;;;;;;3.92;3.70;;;;;;;;;;5019407;28;20468;-95
2023/03/26 05:11:17;;;;;;;3.97;3.78;;;;;;;;;;5021846;28;20124;-95
2023/03/26 05:13:43;;;;;;;3.28;3.17;;;;;;;;;;5021266;28;20049;-95
2023/03/26 05:16:10;;;;;;;3.80;3.60;;;;;;;;;;5020708;28;20453;-95
2023/03/26 05:18:37;;;;;;;3.92;3.75;;;;;;;;;;5020029;28;20108;-96
2023/03/26 05:21:05;;;;;;;3.15;3.05;;;;;;;;;;5017328;28;20057;-96
2023/03/26 05:23:31;;;;;;;2.15;2.05;;;;;;;;;;5017640;28;20061;-96
2023/03/26 05:25:58;;;;;;;3.70;3.50;;;;;;;;;;5017093;28;20100;-95
2023/03/26 05:28:25;;;;;;;3.30;3.10;;;;;;;;;;5016935;28;20057;-95
2023/03/26 05:30:53;;;;;;;4.35;4.15;;;;;;;;;;5018290;28;20046;-94
2023/03/26 05:33:19;;;;;;;5.22;5.03;;;;;;;;;;5020551;28;20088;-93
2023/03/26 05:35:48;;;;;;;4.75;4.55;;;;;;;;;;5024862;28;20049;-94
2023/03/26 05:38:17;;;;;;;4.20;4.00;;;;;;;;;;5023451;28;20046;-93
2023/03/26 05:40:43;;;;;;;4.72;4.53;;;;;;;;;;5023570;28;20045;-95
2023/03/26 05:43:10;;;;;;;6.30;6.00;;;;;;;;;;5021963;28;20057;-94
2023/03/26 05:45:36;;;;;;;6.47;5.78;;;;;;;;;;5020784;28;20046;-94
2023/03/26 05:48:03;;;;;;;5.03;4.82;;;;;;;;;;5020269;28;20084;-92
2023/03/26 05:50:30;;;;;;;4.90;4.70;;;;;;;;;;5020886;28;20065;-92
2023/03/26 05:52:56;;;;;;;4.75;4.55;;;;;;;;;;5017870;28;20088;-88
2023/03/26 05:55:24;;;;;;;3.80;3.60;;;;;;;;;;5011077;28;20096;-90
2023/03/26 05:57:51;;;;;;;4.13;3.92;;;;;;;;;;5015411;28;20050;-93
2023/03/26 06:00:18;;;;;;;4.85;4.60;;;;;;;;;;5024780;28;20104;-93
2023/03/26 06:02:45;;;;;;;5.80;5.50;;;;;;;;;;5039745;28;20053;-92
2023/03/26 06:05:12;;;;;;;5.10;4.75;;;;;;;;;;5038674;28;20041;-91
2023/03/26 06:07:39;;;;;;;4.63;4.32;;;;;;;;;;5023444;28;20057;-94
2023/03/26 06:10:06;;;;;;;4.88;4.65;;;;;;;;;;5025226;28;20054;-93
2023/03/26 06:12:35;;;;;;;3.63;3.50;;;;;;;;;;5015676;28;20407;-93
2023/03/26 06:15:04;;;;;;;7.07;6.78;;;;;;;;;;5016563;28;20085;-94
2023/03/26 06:17:31;;;;;;;4.97;4.68;;;;;;;;;;5022688;28;20210;-94
2023/03/26 06:19:57;;;;;;;4.03;3.83;;;;;;;;;;5019109;28;20065;-95
2023/03/26 06:22:24;;;;;;;4.05;3.85;;;;;;;;;;5041382;28;20054;-94
2023/03/26 06:24:51;;;;;;;5.43;5.20;;;;;;;;;;5038143;28;20053;-96
2023/03/26 06:27:18;;;;;;;6.45;6.18;;;;;;;;;;5016795;28;20073;-94
2023/03/26 06:29:44;;;;;;;4.43;4.22;;;;;;;;;;5015954;28;20058;-96
2023/03/26 06:32:12;;;;;;;5.95;5.75;;;;;;;;;;5021164;28;20081;-95
2023/03/26 06:34:39;;;;;;;5.28;5.07;;;;;;;;;;5018126;28;20061;-94
2023/03/26 06:37:06;;;;;;;5.30;5.10;;;;;;;;;;5018142;28;20054;-95
2023/03/26 06:39:32;;;;;;;4.53;4.32;;;;;;;;;;5017233;28;20054;-94
2023/03/26 06:41:59;;;;;;;6.55;6.32;;;;;;;;;;5019444;28;20053;-94
2023/03/26 06:44:26;;;;;;;4.60;4.40;;;;;;;;;;5021367;28;20088;-93
2023/03/26 06:46:53;;;;;;;6.88;6.45;;;;;;;;;;5017684;28;20053;-95
2023/03/26 06:49:21;;;;;;;6.45;6.15;;;;;;;;;;5020104;28;20054;-96
2023/03/26 06:51:47;;;;;;;4.35;4.15;;;;;;;;;;5020867;28;20060;-95
2023/03/26 06:54:14;;;;;;;8.93;8.52;;;;;;;;;;5022731;28;20759;-95
2023/03/26 06:56:41;;;;;;;6.07;5.70;;;;;;;;;;5028222;28;20046;-95
2023/03/26 06:59:08;;;;;;;6.95;5.80;;;;;;;;;;5048157;28;20144;-93
2023/03/26 07:01:35;;;;;;;7.40;7.10;;;;;;;;;;5032723;28;20136;-93
2023/03/26 07:04:01;;;;;;;6.32;5.90;;;;;;;;;;5025435;28;20069;-93
2023/03/26 07:06:30;;;;;;;5.32;5.13;;;;;;;;;;5031324;28;20401;-94
2023/03/26 07:08:57;;;;;;;5.55;5.25;;;;;;;;;;5032110;28;20053;-94
2023/03/26 07:11:25;;;;;;;6.50;6.20;;;;;;;;;;5029752;28;20061;-91
2023/03/26 07:13:55;;;;;;;5.80;5.57;;;;;;;;;;5029338;28;20054;-94
2023/03/26 07:16:21;;;;;;;7.35;7.05;;;;;;;;;;5027275;28;20060;-90
2023/03/26 07:18:48;;;;;;;8.25;7.82;;;;;;;;;;5037055;28;20057;-92
2023/03/26 07:21:15;;;;;;;5.60;5.38;;;;;;;;;;5043654;28;20053;-92
2023/03/26 07:23:44;;;;;;;5.88;5.65;;;;;;;;;;5041765;28;20428;-92
2023/03/26 07:26:18;;;;;;;7.30;6.97;;;;;;;;;;5028095;28;20045;-90
2023/03/26 07:28:47;;;;;;;7.40;6.78;;;;;;;;;;5018601;28;20104;-92
2023/03/26 07:31:19;;;;;;;7.80;7.40;;;;;;;;;;5018173;28;20056;-93
2023/03/26 07:33:49;;;;;;;5.47;5.28;;;;;;;;;;5017852;28;20057;-91
2023/03/26 07:36:20;;;;;;;5.18;4.97;;;;;;;;;;5018622;28;20064;-91
2023/03/26 07:38:58;;;;;;;5.78;5.47;;;;;;;;;;5018206;28;20061;-93
2023/03/26 07:41:30;;;;;;;7.13;6.82;;;;;;;;;;5021153;28;20490;-93
2023/03/26 07:44:06;;;;;;;5.15;4.85;;;;;;;;;;5038589;28;20065;-92
2023/03/26 07:46:35;;;;;;;5.85;5.65;;;;;;;;;;5018813;28;20556;-94
2023/03/26 07:49:03;;;;;;;6.30;6.00;;;;;;;;;;5016045;28;20513;-89
2023/03/26 07:51:30;;;;;;;8.43;7.82;;;;;;;;;;5016092;28;20089;-90
2023/03/26 07:53:59;;;;;;;6.93;6.53;;;;;;;;;;5016393;28;20437;-91
2023/03/26 07:56:29;;;;;;;9.18;8.77;;;;;;;;;;5016692;28;20042;-89
2023/03/26 07:59:03;;;;;;;8.65;8.25;;;;;;;;;;5016859;28;20061;-91
2023/03/26 08:01:39;;;;;;;6.45;6.10;;;;;;;;;;5005514;28;20054;-90
2023/03/26 08:04:17;;;;;;;7.60;7.28;;;;;;;;;;5007632;28;20046;-90
2023/03/26 08:06:48;;;;;;;5.85;5.55;;;;;;;;;;4997097;28;20113;-90
2023/03/26 08:09:20;;;;;;;8.88;8.43;;;;;;;;;;4996392;28;20114;-91
2023/03/26 08:11:52;;;;;;;7.47;7.07;;;;;;;;;;4996596;28;20058;-90
2023/03/26 08:14:23;;;;;;;6.68;6.38;;;;;;;;;;4996493;28;20058;-91
2023/03/26 08:16:53;;;;;;;7.20;6.90;;;;;;;;;;4996091;28;20061;-90
2023/03/26 08:19:39;;;;;;;6.88;6.53;;;;;;;;;;5001998;28;20045;-90
2023/03/26 08:22:11;;;;;;;6.57;6.28;;;;;;;;;;5015573;28;20050;-92
2023/03/26 08:24:40;;;;;;;8.18;7.80;;;;;;;;;;5017877;28;20133;-93
2023/03/26 08:27:12;;;;;;;6.88;6.53;;;;;;;;;;5016876;28;20057;-91
2023/03/26 08:29:41;;;;;;;7.55;7.25;;;;;;;;;;5017000;28;20052;-93
2023/03/26 08:32:09;;;;;;;6.65;6.35;;;;;;;;;;5017798;28;20076;-94
2023/03/26 08:34:36;;;;;;;10.27;9.88;;;;;;;;;;5023840;28;20053;-92
2023/03/26 08:37:03;;;;;;;7.97;7.57;;;;;;;;;;5021587;28;20042;-95
2023/03/26 08:39:30;;;;;;;7.10;6.80;;;;;;;;;;5018998;28;20046;-89
2023/03/26 08:42:14;;;;;;;9.88;9.32;;;;;;;;;;5016813;28;20062;-93
2023/03/26 08:44:53;;;;;;;8.52;8.20;;;;;;;;;;4990080;28;20050;-94
2023/03/26 08:47:41;;;;;;;7.18;6.85;;;;;;;;;;5021376;28;20050;-94
2023/03/26 08:50:25;;;;;;;7.35;7.05;;;;;;;;;;5019662;28;20597;-91
2023/03/26 08:53:21;;;;;;;8.90;8.57;;;;;;;;;;5009191;28;20069;-91
2023/03/26 08:55:52;;;;;;;9.52;9.02;;;;;;;;;;5019381;28;20050;-93
2023/03/26 08:58:35;;;;;;;9.02;8.68;;;;;;;;;;5003512;28;20058;-92
2023/03/26 09:01:19;;;;;;;8.40;8.07;;;;;;;;;;5006604;28;20045;-95
2023/03/26 09:04:06;;;;;;;7.28;6.88;;;;;;;;;;5022384;28;20060;-94
2023/03/26 09:06:44;;;;;;;6.93;6.63;;;;;;;;;;5017937;28;20560;-95
2023/03/26 09:09:28;;;;;;;10.60;10.18;;;;;;;;;;5020383;28;20046;-91
2023/03/26 09:12:15;;;;;;;8.00;7.68;;;;;;;;;;5016584;28;20184;-92
2023/03/26 09:14:59;;;;;;;6.80;6.50;;;;;;;;;;4991403;28;20560;-93
2023/03/26 09:17:50;;;;;;;8.88;8.50;;;;;;;;;;5016994;28;20050;-93
2023/03/26 09:20:35;;;;;;;11.05;10.50;;;;;;;;;;5016489;28;20047;-95
2023/03/26 09:23:20;;;;;;;6.88;6.57;;;;;;;;;;5016254;28;20410;-93
2023/03/26 09:26:04;;;;;;;8.68;8.30;;;;;;;;;;4986172;28;20092;-94
2023/03/26 09:28:49;;;;;;;12.00;11.50;;;;;;;;;;5016785;28;20050;-92
2023/03/26 09:31:29;;;;;;;7.97;7.68;;;;;;;;;;5012097;28;20572;-93
2023/03/26 09:33:58;;;;;;;9.77;9.18;;;;;;;;;;4997232;28;20050;-92
2023/03/26 09:36:56;;;;;;;11.32;10.80;;;;;;;;;;4997955;28;20486;-95
2023/03/26 09:39:32;;;;;;;10.15;9.63;;;;;;;;;;4939621;29;20054;-94
2023/03/26 09:42:07;;;;;;;11.65;11.15;;;;;;;;;;4938205;29;20083;-94
2023/03/26 09:44:45;;;;;;;10.57;9.68;;;;;;;;;;4937620;29;20103;-94
2023/03/26 09:47:30;;;;;;;8.45;8.05;;;;;;;;;;4942378;29;20094;-93
2023/03/26 09:50:04;;;;;;;8.88;8.48;;;;;;;;;;4946614;29;20479;-93
2023/03/26 09:52:49;;;;;;;11.38;10.93;;;;;;;;;;4956746;29;20151;-96
2023/03/26 09:55:37;;;;;;;7.53;7.13;;;;;;;;;;4957891;29;20062;-94
2023/03/26 09:58:23;;;;;;;7.75;7.45;;;;;;;;;;4952979;29;20083;-94
2023/03/26 10:00:52;;;;;;;8.07;7.78;;;;;;;;;;4956732;29;20091;-94
2023/03/26 10:03:34;;;;;;;9.20;8.80;;;;;;;;;;4955817;29;20047;-95
2023/03/26 10:06:19;;;;;;;8.65;8.32;;;;;;;;;;4953158;29;20047;-91
2023/03/26 10:08:51;;;;;;;10.45;10.05;;;;;;;;;;4956046;29;20055;-93
2023/03/26 10:11:21;;;;;;;12.00;11.50;;;;;;;;;;4955085;28;20529;-92
2023/03/26 10:13:48;;;;;;;;;;;;;;;;;;4994049;28;20073;-93
2023/03/26 10:16:20;;;;;;;11.30;10.88;;;;;;;;;;5015989;28;19921;-94
2023/03/26 10:18:52;;;;;;;10.88;10.43;;;;;;;;;;5015992;28;20046;-92
2023/03/26 10:21:23;;;;;;;12.15;11.55;;;;;;;;;;5016417;28;20108;-93
2023/03/26 10:24:05;;;;;;;9.18;8.77;;;;;;;;;;5005862;28;20097;-94
2023/03/26 10:26:52;;;;;;;9.43;9.02;;;;;;;;;;5017214;28;20052;-93
2023/03/26 10:29:29;;;;;;;12.85;12.30;;;;;;;;;;5016606;28;20481;-94
2023/03/26 10:31:58;;;;;;;9.13;8.73;;;;;;;;;;5025577;28;20046;-93
2023/03/26 10:34:38;;;;;;;9.63;9.13;;;;;;;;;;5029122;28;20046;-91
2023/03/26 10:37:08;;;;;;;9.07;8.57;;;;;;;;;;5029595;28;20042;-92
2023/03/26 10:39:44;;;;;;;10.77;10.27;;;;;;;;;;5011890;28;20072;-93
2023/03/26 10:42:19;;;;;;;14.38;13.27;;;;;;;;;;5004141;28;20100;-94
2023/03/26 10:44:55;;;;;;;9.75;9.32;;;;;;;;;;5001070;28;20062;-94
2023/03/26 10:47:33;;;;;;;9.57;9.18;;;;;;;;;;5001695;28;20050;-93
2023/03/26 10:50:15;;;;;;;9.10;8.70;;;;;;;;;;5011705;28;20061;-93
2023/03/26 10:52:43;;;;;;;10.35;9.85;;;;;;;;;;5019545;28;20548;-94
2023/03/26 10:55:15;;;;;;;14.68;14.07;;;;;;;;;;5019064;28;20490;-94
2023/03/26 10:57:43;;;;;;;12.00;11.50;;;;;;;;;;5017492;28;20045;-94
2023/03/26 11:00:15;;;;;;;12.57;12.07;;;;;;;;;;5019010;28;20511;-93
2023/03/26 11:02:44;;;;;;;11.30;10.75;;;;;;;;;;5019793;28;20046;-93
2023/03/26 11:05:26;;;;;;;11.60;11.10;;;;;;;;;;5018848;28;20053;-91
2023/03/26 11:07:56;;;;;;;12.13;11.63;;;;;;;;;;5018376;28;20050;-91
2023/03/26 11:10:31;;;;;;;15.43;14.80;;;;;;;;;;5018921;28;20104;-94
2023/03/26 11:13:01;;;;;;;13.55;12.95;;;;;;;;;;5018552;28;20050;-93
2023/03/26 11:15:28;;;;;;;;;;;;;;;;;;5016742;28;20489;-95
2023/03/26 11:17:58;;;;;;;12.70;12.18;;;;;;;;;;5018618;28;19925;-93
2023/03/26 11:20:29;;;;;;;15.88;15.27;;;;;;;;;;5018354;28;20045;-94
2023/03/26 11:23:02;;;;;;;14.07;13.48;;;;;;;;;;5022610;28;20559;-94
2023/03/26 11:25:54;;;;;;;10.90;10.50;;;;;;;;;;5025898;28;20053;-96
2023/03/26 11:31:01;;;;;;;11.13;10.73;;;;;;;;;;5230218;22;20061;-89
2023/03/26 11:33:31;;;;;;;11.45;10.95;;;;;;;;;;5054607;28;20049;-88
2023/03/26 11:36:01;;;;;;;8.38;8.00;;;;;;;;;;5055859;28;20048;-91
2023/03/26 11:38:31;;;;;;;12.50;11.98;;;;;;;;;;5056577;28;20048;-90
2023/03/26 11:40:59;;;;;;;10.43;10.00;;;;;;;;;;5055704;28;20136;-90
2023/03/26 11:43:30;;;;;;;17.00;16.35;;;;;;;;;;5051756;28;20053;-91
2023/03/26 11:45:56;;;;;;;;;;;;;;;;;;5037188;28;20084;-90
2023/03/26 11:48:26;;;;;;;9.40;9.00;;;;;;;;;;5056173;28;19951;-90
2023/03/26 11:50:56;;;;;;;10.57;10.18;;;;;;;;;;5056625;28;20052;-89
2023/03/26 11:53:25;;;;;;;11.15;10.70;;;;;;;;;;5068845;28;20389;-89
2023/03/26 11:55:56;;;;;;;11.48;10.98;;;;;;;;;;5064108;28;20055;-89
2023/03/26 11:58:26;;;;;;;12.73;12.23;;;;;;;;;;5058344;28;20499;-90
2023/03/26 12:00:52;;;;;;;;;;;;;;;;;;5056818;28;20048;-91
2023/03/26 12:03:20;;;;;;;11.52;11.07;;;;;;;;;;5055827;28;19924;-90
2023/03/26 12:05:49;;;;;;;11.13;10.63;;;;;;;;;;5055962;28;20132;-90
2023/03/26 12:08:20;;;;;;;16.48;15.85;;;;;;;;;;5042744;28;20041;-92
2023/03/26 12:10:50;;;;;;;12.75;12.25;;;;;;;;;;5054224;28;20045;-91
2023/03/26 12:13:28;;;;;;;10.15;9.70;;;;;;;;;;5055367;28;20045;-90
2023/03/26 12:15:57;;;;;;;9.77;9.38;;;;;;;;;;5055601;28;20412;-91
2023/03/26 12:18:24;;;;;;;10.23;9.82;;;;;;;;;;5055449;28;20055;-91
2023/03/26 12:21:02;;;;;;;10.27;9.88;;;;;;;;;;5056089;28;20132;-90
2023/03/26 12:23:42;;;;;;;13.98;13.48;;;;;;;;;;5063218;28;20794;-90
2023/03/26 12:26:14;;;;;;;10.50;10.10;;;;;;;;;;5054803;28;20516;-90
2023/03/26 12:28:44;;;;;;;9.48;9.07;;;;;;;;;;5035874;28;20096;-92
2023/03/26 12:31:17;;;;;;;11.13;10.70;;;;;;;;;;5035503;28;20103;-89
2023/03/26 12:33:44;;;;;;;10.82;10.40;;;;;;;;;;5035453;28;20049;-89
2023/03/26 12:36:22;;;;;;;11.23;10.73;;;;;;;;;;5038392;28;20053;-95
2023/03/26 12:38:48;;;;;;;12.32;11.77;;;;;;;;;;5046581;28;20054;-90
2023/03/26 12:41:16;;;;;;;10.82;10.43;;;;;;;;;;5059527;28;20067;-95
2023/03/26 12:43:44;;;;;;;11.52;11.02;;;;;;;;;;5062022;28;20530;-94
2023/03/26 12:46:24;;;;;;;10.55;10.15;;;;;;;;;;5066901;28;20056;-96
2023/03/26 12:48:52;;;;;;;9.63;9.23;;;;;;;;;;5057611;28;20049;-95
2023/03/26 12:51:26;;;;;;;7.80;7.50;;;;;;;;;;5074112;28;20579;-95
2023/03/26 12:54:03;;;;;;;9.07;8.68;;;;;;;;;;5056689;28;20075;-94
2023/03/26 12:56:35;;;;;;;9.55;9.07;;;;;;;;;;5064977;28;20048;-94
2023/03/26 12:59:10;;;;;;;10.05;9.65;;;;;;;;;;5066634;28;20127;-94
2023/03/26 13:01:41;;;;;;;10.93;10.52;;;;;;;;;;5077810;28;20548;-94
2023/03/26 13:04:14;;;;;;;10.95;10.55;;;;;;;;;;5076452;28;20048;-93
2023/03/26 13:06:44;;;;;;;11.75;11.27;;;;;;;;;;5064118;28;20550;-94
2023/03/26 13:09:10;;;;;;;;;;;;;;;;;;5036110;28;20117;-95
2023/03/26 13:11:42;;;;;;;12.75;12.25;;;;;;;;;;5036467;28;19987;-94
2023/03/26 13:14:21;;;;;;;8.77;8.27;;;;;;;;;;5039159;28;20052;-91
2023/03/26 13:16:51;;;;;;;10.43;10.02;;;;;;;;;;5054544;28;20123;-94
2023/03/26 13:19:20;;;;;;;9.68;9.27;;;;;;;;;;5063704;28;20565;-91
2023/03/26 13:24:51;;;;;;;11.20;10.80;;;;;;;;;;5096506;27;20377;-95
2023/03/26 13:27:27;;;;;;;10.00;9.60;;;;;;;;;;5097786;28;20110;-94
2023/03/26 13:29:56;;;;;;;11.98;11.40;;;;;;;;;;5094161;28;20048;-94
2023/03/26 13:32:28;;;;;;;16.00;15.40;;;;;;;;;;5087217;28;20047;-92
2023/03/26 13:35:03;;;;;;;10.40;10.00;;;;;;;;;;5063370;28;20053;-93
2023/03/26 13:37:35;;;;;;;10.52;10.13;;;;;;;;;;5072985;28;20075;-93
2023/03/26 13:40:18;;;;;;;12.02;11.52;;;;;;;;;;5086265;28;20075;-94
2023/03/26 13:42:49;;;;;;;9.63;9.23;;;;;;;;;;5078172;28;20052;-93
2023/03/26 13:45:22;;;;;;;10.70;10.30;;;;;;;;;;5077705;28;20527;-93
2023/03/26 13:47:50;;;;;;;10.60;10.20;;;;;;;;;;5080582;28;20073;-93
2023/03/26 13:50:21;;;;;;;11.55;11.15;;;;;;;;;;5080571;28;20063;-93
2023/03/26 13:52:51;;;;;;;11.15;10.68;;;;;;;;;;5080804;28;20045;-93
2023/03/26 13:55:25;;;;;;;12.57;11.98;;;;;;;;;;5081101;28;20045;-94
2023/03/26 13:57:57;;;;;;;10.80;10.40;;;;;;;;;;5078140;28;20108;-94
2023/03/26 14:00:31;;;;;;;13.55;12.95;;;;;;;;;;5084902;28;20117;-94
2023/03/26 14:03:02;;;;;;;13.80;13.30;;;;;;;;;;5084630;28;20043;-94
2023/03/26 14:05:31;;;;;;;10.70;10.30;;;;;;;;;;5084812;28;20047;-94
2023/03/26 14:08:02;;;;;;;10.57;10.18;;;;;;;;;;5083754;28;20075;-95
2023/03/26 14:10:34;;;;;;;12.95;12.32;;;;;;;;;;5086717;28;20052;-95
2023/03/26 14:13:05;;;;;;;12.40;11.90;;;;;;;;;;5087767;28;20068;-95
2023/03/26 14:15:37;;;;;;;13.18;12.68;;;;;;;;;;5085336;28;20527;-94
2023/03/26 14:18:19;;;;;;;11.68;11.18;;;;;;;;;;5082277;28;20393;-94
2023/03/26 14:20:57;;;;;;;13.48;12.98;;;;;;;;;;5082885;28;20060;-94
2023/03/26 14:23:49;;;;;;;9.18;8.77;;;;;;;;;;5085232;28;20100;-96
2023/03/26 14:26:23;;;;;;;12.32;11.88;;;;;;;;;;5054146;28;20099;-96
2023/03/26 14:29:11;;;;;;;9.32;8.93;;;;;;;;;;5066510;28;20060;-95
2023/03/26 14:31:44;;;;;;;12.05;11.57;;;;;;;;;;5065740;28;20049;-95
2023/03/26 14:34:27;;;;;;;12.40;11.90;;;;;;;;;;5065215;28;20061;-95
2023/03/26 14:37:14;;;;;;;11.70;11.18;;;;;;;;;;5053466;28;20061;-96
2023/03/26 14:40:11;;;;;;;13.85;13.32;;;;;;;;;;5055289;28;20050;-96
2023/03/26 14:42:41;;;;;;;12.02;11.52;;;;;;;;;;5053910;28;20092;-93
2023/03/26 14:45:28;;;;;;;10.25;9.85;;;;;;;;;;5073485;28;20057;-95
2023/03/26 14:48:06;;;;;;;14.40;13.88;;;;;;;;;;5070117;28;20171;-96
2023/03/26 14:50:49;;;;;;;13.88;13.38;;;;;;;;;;5072814;28;20033;-95
2023/03/26 14:53:18;;;;;;;14.93;14.32;;;;;;;;;;5070883;28;20072;-96
2023/03/26 14:56:11;;;;;;;12.73;12.23;;;;;;;;;;5068645;28;20053;-94
2023/03/26 14:58:59;;;;;;;14.65;14.05;;;;;;;;;;5063741;28;20148;-94
2023/03/26 15:01:28;;;;;;;12.43;11.93;;;;;;;;;;5056329;28;20095;-94
2023/03/26 15:04:14;;;;;;;14.88;14.25;;;;;;;;;;5070605;28;20489;-95
2023/03/26 15:06:59;;;;;;;11.13;10.52;;;;;;;;;;5063722;28;20060;-95
2023/03/26 15:09:45;;;;;;;9.85;9.50;;;;;;;;;;5063604;28;20049;-95
2023/03/26 15:12:18;;;;;;;13.07;12.57;;;;;;;;;;5068184;28;20103;-94
2023/03/26 15:15:15;;;;;;;14.88;14.18;;;;;;;;;;5071091;28;20060;-95
2023/03/26 15:17:52;;;;;;;12.52;12.02;;;;;;;;;;5061149;28;20040;-96
2023/03/26 15:20:35;;;;;;;11.43;10.93;;;;;;;;;;5064862;28;20057;-95